EPWAEPWR

Guest
Details From EPWA - WARSZAWA Okecie
To EPWR - STRACHOWICE
Flight Number -
Tags generated
Created
Modified
Stats Distance 165 nm / 306 km
Max Altitude 0 ft / 0 m
Waypoints 3
Social Downloads 6
Likes 0
Share VATSIM

Download

Looking for another format? Having issues loading an existing format? Contact us
Advertisement - Login to hide

Notes

None

Route

EPWA GULPO EPWR

ID Type Via Altitude Latitude Longitude Leg Dist Tot Dist Heading (true) Name
O EPWA APT - 0 ft / 0 m 52.16509˚ 20.96692˚ - 0 nm - WARSZAWA Okecie
GULPO FIX - 0 ft / 0 m 51.70389˚ 19.13250˚ 73 nm 73 nm 249° / 247° -
O EPWR APT - 0 ft / 0 m 51.10388˚ 16.88189˚ 91 nm 165 nm 248° / 246° STRACHOWICE

Altitude Profile

Advertisement - Login to hide

Weather


0- 5 10 15 20 25 30 35+ Temperature / ° C

Clouds and Precipitation
Forecast for 2017-12-15 00:00 UTC. Updated 2 hours ago

Ground ~20,000 ft ~40,000 ft Winds

EPWA

Details ICAO EPWA (WAW)
Name WARSZAWA Okecie
Region Poland
Timezone Europe/Warsaw (UTC+1.0)
Stats Elevation 328 ft / 100 m (AMSL)
Location 52.165091° 20.966923°
Runways 2
Magnetic Variation 5.802° E

METAR

EPWA 150100Z 19008KT CAVOK 02/M02 Q0997 NOSIG

Decode

TAF

TAF EPWA 142330Z 1500/1524 17007KT CAVOK BECMG 1511/1513 BKN006 TEMPO 1513/1518 1500 SNRA BR BKN003 BECMG 1515/1517 26010KT PROB40 1518/1524 3000 -RA BR BKN003

Decode

Departure Runways

ID Width Length Bearing (true) Bearing (mag) Surface Threshold Offset Overrun Length
11 164 ft / 50 m 9,163 ft / 2,793 m 114.64° 108.84° Asphalt 0 ft / 0 m 476 ft / 145 m
15 197 ft / 60 m 12,112 ft / 3,692 m 151.85° 146.05° Asphalt 0 ft / 0 m 0 ft / 0 m
29 164 ft / 50 m 9,163 ft / 2,793 m 294.67° 288.87° Asphalt 1,608 ft / 490 m 0 ft / 0 m
33 197 ft / 60 m 12,112 ft / 3,692 m 331.87° 326.07° Asphalt 0 ft / 0 m 0 ft / 0 m

EPWR

Details ICAO EPWR (WRO)
Name STRACHOWICE
Region Poland
Timezone Europe/Warsaw (UTC+1.0)
Stats Elevation 404 ft / 123 m (AMSL)
Location 51.103882° 16.881892°
Runways 1
Magnetic Variation 4.613° E

METAR

EPWR 150100Z 21007KT CAVOK 04/M02 Q0996

Decode

TAF

TAF EPWR 142330Z 1500/1524 21008KT 9999 BKN030 BECMG 1506/1508 BKN013 TEMPO 1509/1516 3000 RA BR BKN007 OVC010 BECMG 1510/1512 27010KT PROB30 TEMPO 1512/1515 27015G25KT

Decode

Destination Runways

ID Width Length Bearing (true) Bearing (mag) Surface Threshold Offset Overrun Length
12 197 ft / 60 m 8,192 ft / 2,497 m 115.99° 111.38° Concrete 0 ft / 0 m 0 ft / 0 m
30 197 ft / 60 m 8,192 ft / 2,497 m 296.01° 291.40° Concrete 0 ft / 0 m 0 ft / 0 m

Approach Navaids

Runway Type Ident Frequency Range Bearing (true) Bearing (mag) Slope Elevation
30 Localiser WRO 110.30 MHz 18 nm / 33 km 295.98° 291.37° - 404 ft / 123 m (AMSL)
30 Glidescope WRO 110.30 MHz 10 nm / 19 km 296.00° 291.39° 3.00° 404 ft / 123 m (AMSL)
30 DME WRO 110.30 MHz 18 nm / 33 km - - - 394 ft / 120 m (AMSL)

Popular Alternatives